Airfield :
LOGIN :

Register | Disclaimer

   EN    FR    IT 

 










Legend :    VFR   Marginal VFR   IFR   Intensive IFR   Very Intensive IFR
Visi :
Ceiling :
>= 8 km
>= 3000ft
5 to 8 km
1000 to 3000 ft
1500m to 5 km
500 to 1000 ft
800 to 1500m
200 to 500 ft
< 800m
< 200 ft
Symbols :   Thunderstorms  Fog  Heavy snow  Heavy precipitations  Wind > 20 kt
SIGMETs :     Misc.  Thunderstorms  Icing  Turbulence  Mountain Waves  Volcanic Ashes






- Airport Elevation : 124 ft
- IATA code : RNS


LFRN - Rennes

CURRENT METAR :
  • 261100Z AUTO 14007KT 9999 BKN026 OVC096 03/00 Q1022 TEMPO SN

EXPIRED METARs :
  • 261030Z AUTO 14007KT 110V170 9999 SCT027 OVC100 03/00 Q1022 TEMPO SN
  • 261000Z AUTO 15009KT CAVOK 03/M00 Q1022 TEMPO SN
  • 260930Z AUTO 15009KT CAVOK 03/M00 Q1021 TEMPO SN
  • 260900Z AUTO 16009KT CAVOK 02/M01 Q1021 TEMPO SN
  • 260830Z AUTO 15007KT CAVOK 02/M01 Q1021 TEMPO SN

TAF AMD TAF LFRN
Valid from the 26 at 06:00 until the 27 at 06:00 UTC


260549Z 2606/2706 VRB05KT CAVOK
TEMPO 2606/2608 5000 BR
BECMG 2608/2610 18010KT
PROB30
TEMPO 2610/2613 SN
TEMPO 2614/2616 5000 RA
TEMPO 2616/2622 4000 RA OVC012
BECMG 2620/2622 2000 BR BKN004
BECMG 2622/2624 VRB05KT
TEMPO 2700/2706 0400 FG VV///
ATIS : +33 2 99 67 72 50



MET'MAP, your aeronautical weather chart ! - Copyright ORBIFLY December 2007 - Disclaimer

ORBIFLY MET'MAP TEAM :

Programming & Development : Alexandra Zaïnal
Concept & original design : Baudouin d'Aumeries
Assistance for programming : Marc-Olivier Méhu
Technical & hardware support : Manuel Goepfert

Contact : metmap@orbifly.com




SOURCES & CREDITS :

   NOAA